• Join FlightAware (Why Join?)
  • Login
  • US Flag 
09:07PM EDT


 

Airport Tracker/Info


-or-


 

Live Flight TrackerFlight Track Log ✈ UPS1219 ✈ 12-Jun-2013 ✈ KIAD - KSDF

Flight Track Log - Related Links

Times and Time Zones

All times are in EDT time to prevent confusion due to time zone crossing. See the UPS1219 flight status page for this flight to view local times or setup timezone preferences in your user account.

Time Position Orientation Groundspeed Altitude Reporting Facility
EDT Latitude Longitude Course Direction KTS MPH feet Rate Location/Type
10:54PM 38.9420 -77.5020 247° West 173 199 2,000  Level FlightAware
10:54PM 38.9280 -77.5310 238° Southwest 213 245 2,900 1,500 Climbing FlightAware
10:54PM 38.9230 -77.5430 242° Southwest 225 259 3,000 420 Climbing FlightAware
10:55PM 38.9060 -77.5800 239° Southwest 255 293 3,200 1,740 Climbing FlightAware
10:55PM 38.8900 -77.6130 238° Southwest 266 306 4,600 3,660 Climbing FlightAware
10:56PM 38.8710 -77.6520 238° Southwest 270 311 6,600 3,300 Climbing FlightAware
10:56PM 38.8610 -77.6750 241° Southwest 279 321 7,100 660 Climbing FlightAware
10:57PM 38.8460 -77.7210 247° West 281 323 7,100 60 Level FlightAware
10:57PM 38.8330 -77.7600 247° West 278 320 7,200 480 Climbing FlightAware
10:57PM 38.8280 -77.7750 247° West 278 320 7,400 2,700 Climbing FlightAware
10:58PM 38.8120 -77.8220 246° West 291 335 9,000 3,180 Climbing FlightAware
10:58PM 38.8070 -77.8450 254° West 287 330 9,800 2,760 Climbing FlightAware
10:59PM 38.8130 -77.9250 276° West 323 372 11,800 2,460 Climbing FlightAware
10:59PM 38.8250 -78.0060 281° West 356 410 13,300 3,000 Climbing FlightAware
11:00PM 38.8370 -78.0890 281° West 357 411 15,800 3,000 Climbing FlightAware
11:01PM 38.8510 -78.1860 281° West 380 437 17,600 2,580 Climbing FlightAware
11:01PM 38.8540 -78.2900 272° West 397 457 19,700 2,580 Climbing FlightAware
11:02PM 38.8530 -78.3860 269° West 408 470 21,300 2,460 Climbing FlightAware
11:03PM 38.8510 -78.4830 269° West 415 478 23,000 2,220 Climbing FlightAware
11:04PM 38.8500 -78.5930 269° West 425 489 24,500 1,920 Climbing FlightAware
11:04PM 38.8490 -78.6950 269° West 435 501 25,800 1,560 Climbing FlightAware
11:06PM 38.8460 -78.8790 269° West 452 520 27,600 1,920 Climbing FlightAware
11:06PM 38.8430 -79.0270 269° West 441 507 29,900 2,220 Climbing FlightAware
11:07PM 38.8410 -79.1390 269° West 440 506 31,000 780 Climbing FlightAware
11:08PM 38.8330 -79.2360 264° West 450 518 31,000  Level FlightAware
11:08PM 38.8110 -79.3630 258° West 443 510 31,000  Level FlightAware
11:09PM 38.7940 -79.4600 257° West 437 503 31,000  Level FlightAware
11:10PM 38.7660 -79.6090 256° West 443 510 31,000  Level FlightAware
11:11PM 38.7410 -79.7470 257° West 445 512 31,000  Level FlightAware
11:12PM 38.7190 -79.8630 256° West 450 518 31,000  Level FlightAware
11:13PM 38.6660 -79.9940 243° Southwest 456 525 31,000  Level FlightAware
11:13PM 38.6320 -80.0720 241° Southwest 453 521 31,000  Level FlightAware
11:14PM 38.5740 -80.2120 242° Southwest 452 520 31,000  Level FlightAware
11:15PM 38.5440 -80.2820 241° Southwest 452 520 31,000  Level FlightAware
11:16PM 38.5240 -80.4800 263° West 443 510 31,000  Level FlightAware
11:17PM 38.4930 -80.6160 254° West 442 509 31,000  Level FlightAware
11:17PM 38.4740 -80.6990 254° West 444 511 31,000  Level FlightAware
11:18PM 38.4490 -80.8070 254° West 448 516 31,000  Level FlightAware
11:19PM 38.4230 -80.9220 254° West 448 516 31,000  Level FlightAware
11:20PM 38.4000 -81.0220 254° West 441 507 31,000  Level FlightAware
11:20PM 38.3760 -81.1260 254° West 440 506 31,000  Level FlightAware
11:21PM 38.3520 -81.2310 254° West 443 510 31,000  Level FlightAware
11:22PM 38.3280 -81.3310 253° West 443 510 31,000  Level FlightAware
11:22PM 38.3010 -81.4460 253° West 442 509 31,000  Level FlightAware
11:23PM 38.2770 -81.5510 254° West 442 509 31,000  Level FlightAware
11:24PM 38.2540 -81.6500 254° West 442 509 31,000  Level FlightAware
11:24PM 38.2270 -81.7600 253° West 440 506 31,000  Level FlightAware
11:25PM 38.2050 -81.8540 253° West 442 509 31,000  Level FlightAware
11:26PM 38.1780 -81.9680 253° West 444 511 31,000  Level FlightAware
11:27PM 38.1540 -82.0680 253° West 442 509 31,000  Level FlightAware
11:27PM 38.1280 -82.1770 253° West 440 506 31,000  Level FlightAware
11:28PM 38.1060 -82.2660 253° West 445 512 31,000  Level FlightAware
11:29PM 38.0780 -82.3810 253° West 447 514 31,000 -240 Level FlightAware
11:29PM 38.0520 -82.4870 253° West 449 517 30,700 -540 Descending FlightAware
11:30PM 38.0290 -82.5820 253° West 446 513 30,300 -540 Descending FlightAware
11:31PM 38.0000 -82.7000 253° West 447 514 30,000 -240 Descending FlightAware
11:31PM 37.9820 -82.7700 252° West 451 519 30,000  Level FlightAware
11:32PM 37.9595 -82.8639 253° West 453 521 30,000  Level FlightAware ADS-B
11:33PM 37.9400 -82.9790 258° West 454 522 30,000  Level FlightAware
11:33PM 37.9344 -83.0394 263° West 455 524 30,000  Level FlightAware ADS-B
11:33PM 37.9237 -83.1178 260° West 451 519 30,000  Level FlightAware ADS-B
11:34PM 37.9140 -83.1850 260° West 454 522 30,000 -180 Level FlightAware
11:35PM 37.8984 -83.3006 260° West 446 513 29,800 -1,200 Descending FlightAware ADS-B
11:36PM 37.8612 -83.5616 260° West 452 520 27,300 -1,680 Descending FlightAware ADS-B
11:37PM 37.8371 -83.7301 260° West 436 502 25,200 -1,920 Descending FlightAware ADS-B
11:38PM 37.8192 -83.8561 260° West 424 488 23,600 -1,860 Descending FlightAware ADS-B
11:43PM 37.7290 -84.4680 260° West 390 449 15,900 -1,800 Descending FlightAware
11:43PM 37.7150 -84.5620 259° West 384 442 14,700 -1,080 Descending FlightAware
11:44PM 37.7030 -84.6360 258° West 382 440 14,500 -120 Descending FlightAware
11:45PM 37.6790 -84.7940 259° West 382 440 14,500 -780 Level FlightAware
11:50PM 37.8730 -85.2520 298° West 302 348 10,200 -960 Descending FlightAware
11:50PM 37.9080 -85.3010 312° West 267 307 9,900 -840 Descending FlightAware
11:51PM 37.9290 -85.3310 312° West 260 299 9,300 -1,440 Descending FlightAware
11:51PM 37.9630 -85.3810 311° West 255 293 8,200 -1,560 Descending FlightAware
11:52PM 37.9840 -85.4100 313° West 256 295 7,500 -1,440 Descending FlightAware
11:52PM 38.0040 -85.4380 312° West 248 285 7,000 -1,320 Descending FlightAware
11:53PM 38.0310 -85.4740 314° West 242 278 6,200 -1,500 Descending FlightAware
11:53PM 38.0460 -85.4950 312° West 241 277 5,600 -1,260 Descending FlightAware
11:54PM 38.0710 -85.5320 311° West 243 280 5,100 -660 Descending FlightAware
11:54PM 38.0830 -85.5490 312° West 244 281 5,100  Level FlightAware
11:54PM 38.1020 -85.5740 314° West 247 284 5,100 120 Level FlightAware
11:55PM 38.1210 -85.5870 332° Northwest 263 303 5,200  Climbing FlightAware
11:55PM 38.1500 -85.6020 338° Northwest 262 302 5,100 -780 Descending FlightAware
11:56PM 38.1830 -85.6160 342° North 261 300 4,500 -1,260 Descending FlightAware
11:56PM 38.2010 -85.6250 339° North 262 302 4,200 -600 Descending FlightAware
11:56PM 38.2320 -85.6350 346° North 266 306 4,100 -120 Descending FlightAware
11:57PM 38.2640 -85.6460 345° North 252 290 4,100  Level FlightAware
11:57PM 38.2970 -85.6570 345° North 224 258 4,100  Level FlightAware
11:58PM 38.3250 -85.6670 344° North 210 242 4,100 -180 Level FlightAware
11:58PM 38.3330 -85.6740 326° Northwest 179 206 4,000 -780 Descending FlightAware
11:58PM 38.3370 -85.6850 295° West 157 181 3,800 -1,020 Descending FlightAware
11:59PM 38.3340 -85.7110 262° West 142 163 3,300 -780 Descending FlightAware
11:59PM 38.3300 -85.7340 258° West 147 169 3,100 -300 Descending FlightAware
11:59PM 38.3250 -85.7440 237° Southwest 141 162 3,100  Level FlightAware
12:00AM 38.3160 -85.7490 204° Southwest 135 155 3,100 -600 Level FlightAware
12:00AM 38.3010 -85.7550 197° South 135 155 2,700 -780 Descending FlightAware
12:00AM 38.2830 -85.7590 190° South 145 167 2,400 -420 Descending FlightAware
12:01AM 38.2730 -85.7580 176° South 122 140 2,400 -540 Level FlightAware
12:01AM 38.2520 -85.7540 171° South 115 132 1,900 -660 Descending FlightAware
12:02AM 38.2390 -85.7490 163° South 120 138 1,700 -540 Descending FlightAware
12:02AM 38.2220 -85.7430 165° South 122 140 1,400 -780 Descending FlightAware
12:03AM 38.2050 -85.7380 167° South 121 139 1,000 -660 Descending FlightAware
12:03AM 38.1910 -85.7330 164° South 121 139 800 -480 Descending FlightAware
12:04AM 38.1770 -85.7280 164° South 90 104 -1,860 Descending FlightAware
12:04AM 38.1710 -85.7270 173° South 30 35  Level FlightAware
12:05AM 38.1730 -85.7280 339° North 16 18  Level FlightAware
12:06AM 38.1770 -85.7370 299° West 38 44  Level FlightAware
12:07AM 38.1790 -85.7430 293° West 34 39  Level FlightAware
12:07AM 38.1770 -85.7430 180° South 24 28  Level FlightAware